Hutchinson County Airport - Borger, Texas, United States - FAA: BGD - ICAO: KBGD - IATA: BGD

 
  Longest Runway: 6,300 feet   Approach Types:    Customs Landing Rights Airport: No   Port of Entry: No

Local Forecast

Tonight (10/31): Partly cloudy, with a low around 38. South southeast wind 10 to 15 mph, with gusts as high as 20 mph.

Saturday (11/1): Mostly sunny, with a high near 64. Wind chill values between 29 and 39 early. South wind 15 to 20 mph, with gusts as high as 30 mph.

Saturday Night (11/1): Mostly cloudy, with a low around 45. South wind 15 to 20 mph, with gusts as high as 30 mph.

Sunday (11/2): Partly sunny, with a high near 73. South wind 15 to 20 mph, with gusts as high as 30 mph.

Sunday Night (11/2): A 30 percent chance of showers and thunderstorms, mainly after 1am. Mostly cloudy, with a low around 51. South wind 15 to 20 mph, with gusts as high as 30 mph.

Monday (11/3): A chance of showers. Mostly cloudy, with a high near 68. South southwest wind around 15 mph, with gusts as high as 25 mph. Chance of precipitation is 40%.

Monday Night (11/3): A 30 percent chance of showers. Mostly cloudy, with a low around 43. South southwest wind 5 to 10 mph becoming north northwest after midnight.



Current Weather (METAR)

2014/10/31 20:51 KBGD 312051Z AUTO 09007KT 10SM CLR 16/M03 A3036 RMK AO2 SLP269 T01561028 56032

BORGER HUTCHINSON CO AIRPORT , TX, United States (KBGD) 35-42N 101-24W 927M Oct 31, 2014 - 04:51 PM EDT / 2014.10.31 2051 UTC Wind: from the E (090 degrees) at 8 MPH (7 KT):0 Visibility: 10 mile(s):0 Sky conditions: clear Temperature: 60.1 F (15.6 C) Dew Point: 27.0 F (-2.8 C) Relative Humidity: 28% Pressure (altimeter): 30.36 in. Hg (1028 hPa) Pressure tendency: 0.09 inches (3.2 hPa) lower than three hours ago ob: KBGD 312051Z AUTO 09007KT 10SM CLR 16/M03 A3036 RMK AO2 SLP269 T01561028 56032 cycle: 21

Terminal Forecast (TAF)